Wallingford, Connecticut
Current Conditions -  °F | °C
As of 5:00 AM on Monday 22 Dec 2014 (Local Time) from KMMK Reporting Station
Overcast Overcast  
Wind Chill: 29°   Ceiling: 1300
Heat Index: 34°   Visibility: 10mi
Dew Point: 30°   Wind: 6mph
Humidity: 85%   Direction: 10°N
Pressure: 30.34"   Gusts: NA
Location:  41.46°N, 72.82°W
Report Text: KMMK 221000Z AUTO 01005KT 10SM BKN013 OVC041 01/M01 A3034 RMK AO2 T00111011 TSNO
Loading
Personal Weather Stations






























Interactive Weather Map New forecast layout! Learn more

10-Day Weather Forecast

Advertisements
Track Severe Weather on mobile